sensor_id;sensor_type;location;lat;lon;timestamp;temperature;humidity
61400;DHT22;47269;48.182;-1.946;2023-05-29T06:00:09;13.80;99.90
61400;DHT22;47269;48.182;-1.946;2023-05-29T06:02:41;13.80;99.90
61400;DHT22;47269;48.182;-1.946;2023-05-29T06:05:08;14.00;99.90
61400;DHT22;47269;48.182;-1.946;2023-05-29T06:07:35;14.00;99.90
61400;DHT22;47269;48.182;-1.946;2023-05-29T06:10:01;14.00;99.90
61400;DHT22;47269;48.182;-1.946;2023-05-29T06:12:27;14.10;99.90
61400;DHT22;47269;48.182;-1.946;2023-05-29T06:14:53;14.20;99.90
61400;DHT22;47269;48.182;-1.946;2023-05-29T06:17:18;14.20;99.90
61400;DHT22;47269;48.182;-1.946;2023-05-29T06:19:44;14.30;99.90
61400;DHT22;47269;48.182;-1.946;2023-05-29T06:22:10;14.30;99.90
61400;DHT22;47269;48.182;-1.946;2023-05-29T06:24:35;14.20;99.90
61400;DHT22;47269;48.182;-1.946;2023-05-29T06:27:01;14.40;99.90
61400;DHT22;47269;48.182;-1.946;2023-05-29T06:29:27;14.50;99.90
61400;DHT22;47269;48.182;-1.946;2023-05-29T06:31:53;14.50;99.90
61400;DHT22;47269;48.182;-1.946;2023-05-29T06:34:18;14.50;99.90
61400;DHT22;47269;48.182;-1.946;2023-05-29T06:36:44;14.50;99.90
61400;DHT22;47269;48.182;-1.946;2023-05-29T06:39:10;14.60;99.90
61400;DHT22;47269;48.182;-1.946;2023-05-29T06:41:36;14.70;99.90
61400;DHT22;47269;48.182;-1.946;2023-05-29T06:44:01;14.60;99.90
61400;DHT22;47269;48.182;-1.946;2023-05-29T06:46:27;14.60;99.90
61400;DHT22;47269;48.182;-1.946;2023-05-29T06:48:53;14.70;99.90
61400;DHT22;47269;48.182;-1.946;2023-05-29T06:51:18;14.60;99.90
61400;DHT22;47269;48.182;-1.946;2023-05-29T06:53:44;14.60;99.90
61400;DHT22;47269;48.182;-1.946;2023-05-29T06:56:10;14.80;99.90
61400;DHT22;47269;48.182;-1.946;2023-05-29T06:58:36;14.90;99.90
61400;DHT22;47269;48.182;-1.946;2023-05-29T07:01:01;15.20;99.90
61400;DHT22;47269;48.182;-1.946;2023-05-29T07:03:27;15.00;99.90
61400;DHT22;47269;48.182;-1.946;2023-05-29T07:05:53;15.10;99.90
61400;DHT22;47269;48.182;-1.946;2023-05-29T07:08:19;15.20;99.90
61400;DHT22;47269;48.182;-1.946;2023-05-29T07:10:45;15.10;99.90
61400;DHT22;47269;48.182;-1.946;2023-05-29T07:13:15;15.00;99.90
61400;DHT22;47269;48.182;-1.946;2023-05-29T07:15:41;15.10;99.90
61400;DHT22;47269;48.182;-1.946;2023-05-29T07:18:07;15.30;99.90
61400;DHT22;47269;48.182;-1.946;2023-05-29T07:20:33;15.20;99.90
61400;DHT22;47269;48.182;-1.946;2023-05-29T07:22:58;15.30;99.90
61400;DHT22;47269;48.182;-1.946;2023-05-29T07:25:25;15.60;99.90
61400;DHT22;47269;48.182;-1.946;2023-05-29T07:27:51;15.90;99.90
61400;DHT22;47269;48.182;-1.946;2023-05-29T07:30:17;16.10;99.90
61400;DHT22;47269;48.182;-1.946;2023-05-29T07:32:43;16.00;99.90
61400;DHT22;47269;48.182;-1.946;2023-05-29T07:37:57;16.10;99.90
61400;DHT22;47269;48.182;-1.946;2023-05-29T07:40:36;16.40;99.90
61400;DHT22;47269;48.182;-1.946;2023-05-29T07:43:04;16.20;99.90
61400;DHT22;47269;48.182;-1.946;2023-05-29T07:45:38;16.50;99.90
61400;DHT22;47269;48.182;-1.946;2023-05-29T07:48:10;16.80;99.90
61400;DHT22;47269;48.182;-1.946;2023-05-29T07:50:48;16.40;99.90
61400;DHT22;47269;48.182;-1.946;2023-05-29T08:03:38;17.10;99.90
61400;DHT22;47269;48.182;-1.946;2023-05-29T08:08:39;16.80;99.90
61400;DHT22;47269;48.182;-1.946;2023-05-29T08:17:13;17.00;99.90
61400;DHT22;47269;48.182;-1.946;2023-05-29T08:19:44;17.10;99.90
61400;DHT22;47269;48.182;-1.946;2023-05-29T08:22:12;17.00;99.90
61400;DHT22;47269;48.182;-1.946;2023-05-29T08:24:39;17.10;99.90
61400;DHT22;47269;48.182;-1.946;2023-05-29T08:27:05;17.30;99.90
61400;DHT22;47269;48.182;-1.946;2023-05-29T08:29:31;17.40;99.90
61400;DHT22;47269;48.182;-1.946;2023-05-29T08:31:57;17.70;99.90
61400;DHT22;47269;48.182;-1.946;2023-05-29T08:34:22;17.90;99.90
61400;DHT22;47269;48.182;-1.946;2023-05-29T08:36:48;18.00;99.90
61400;DHT22;47269;48.182;-1.946;2023-05-29T08:39:44;18.00;99.90
61400;DHT22;47269;48.182;-1.946;2023-05-29T08:42:36;17.90;99.90
61400;DHT22;47269;48.182;-1.946;2023-05-29T08:47:40;18.60;99.90
61400;DHT22;47269;48.182;-1.946;2023-05-29T08:50:29;18.90;99.90
61400;DHT22;47269;48.182;-1.946;2023-05-29T09:05:16;18.90;99.90
61400;DHT22;47269;48.182;-1.946;2023-05-29T09:07:42;18.40;99.90
61400;DHT22;47269;48.182;-1.946;2023-05-29T09:10:09;18.70;99.90
61400;DHT22;47269;48.182;-1.946;2023-05-29T09:12:35;19.30;99.90
61400;DHT22;47269;48.182;-1.946;2023-05-29T09:15:02;19.40;99.90
61400;DHT22;47269;48.182;-1.946;2023-05-29T09:17:32;19.90;99.90
61400;DHT22;47269;48.182;-1.946;2023-05-29T09:19:59;19.90;99.90
61400;DHT22;47269;48.182;-1.946;2023-05-29T09:22:26;20.20;99.90
61400;DHT22;47269;48.182;-1.946;2023-05-29T09:24:52;21.00;99.90
61400;DHT22;47269;48.182;-1.946;2023-05-29T09:27:18;20.80;99.90
61400;DHT22;47269;48.182;-1.946;2023-05-29T09:29:45;20.20;99.90
61400;DHT22;47269;48.182;-1.946;2023-05-29T09:32:15;20.20;99.90
61400;DHT22;47269;48.182;-1.946;2023-05-29T09:34:42;20.30;99.90
61400;DHT22;47269;48.182;-1.946;2023-05-29T09:37:09;20.60;99.90
61400;DHT22;47269;48.182;-1.946;2023-05-29T09:39:45;20.30;99.90
61400;DHT22;47269;48.182;-1.946;2023-05-29T09:42:15;20.90;99.90
61400;DHT22;47269;48.182;-1.946;2023-05-29T09:44:42;20.80;99.90
61400;DHT22;47269;48.182;-1.946;2023-05-29T09:47:08;21.50;99.90
61400;DHT22;47269;48.182;-1.946;2023-05-29T09:49:34;21.20;99.90
61400;DHT22;47269;48.182;-1.946;2023-05-29T09:52:03;20.40;99.90
61400;DHT22;47269;48.182;-1.946;2023-05-29T09:54:30;20.00;99.90
61400;DHT22;47269;48.182;-1.946;2023-05-29T09:56:58;20.20;99.90
61400;DHT22;47269;48.182;-1.946;2023-05-29T09:59:24;20.20;99.90
61400;DHT22;47269;48.182;-1.946;2023-05-29T10:02:03;20.50;99.90
61400;DHT22;47269;48.182;-1.946;2023-05-29T10:04:33;20.50;99.90
61400;DHT22;47269;48.182;-1.946;2023-05-29T10:07:08;21.00;99.90
61400;DHT22;47269;48.182;-1.946;2023-05-29T10:09:40;21.10;99.90
61400;DHT22;47269;48.182;-1.946;2023-05-29T10:12:07;21.10;99.90
61400;DHT22;47269;48.182;-1.946;2023-05-29T10:14:35;21.50;99.90
61400;DHT22;47269;48.182;-1.946;2023-05-29T10:17:02;21.20;99.90
61400;DHT22;47269;48.182;-1.946;2023-05-29T10:19:32;21.70;99.90
61400;DHT22;47269;48.182;-1.946;2023-05-29T10:22:01;21.50;99.90
61400;DHT22;47269;48.182;-1.946;2023-05-29T10:24:28;21.50;99.90
61400;DHT22;47269;48.182;-1.946;2023-05-29T10:26:54;21.90;99.90
61400;DHT22;47269;48.182;-1.946;2023-05-29T10:29:37;21.20;99.90
61400;DHT22;47269;48.182;-1.946;2023-05-29T10:32:27;21.00;99.90
61400;DHT22;47269;48.182;-1.946;2023-05-29T10:37:50;21.10;99.90
61400;DHT22;47269;48.182;-1.946;2023-05-29T10:40:23;21.30;99.90
61400;DHT22;47269;48.182;-1.946;2023-05-29T10:42:50;21.50;99.90
61400;DHT22;47269;48.182;-1.946;2023-05-29T10:53:09;22.10;99.90
61400;DHT22;47269;48.182;-1.946;2023-05-29T10:55:40;21.80;99.90
61400;DHT22;47269;48.182;-1.946;2023-05-29T10:58:12;21.80;99.90
61400;DHT22;47269;48.182;-1.946;2023-05-29T11:00:52;21.60;99.90
61400;DHT22;47269;48.182;-1.946;2023-05-29T11:03:30;21.50;99.90
61400;DHT22;47269;48.182;-1.946;2023-05-29T11:06:03;21.90;99.90
61400;DHT22;47269;48.182;-1.946;2023-05-29T11:08:43;22.30;99.90
61400;DHT22;47269;48.182;-1.946;2023-05-29T11:14:50;22.50;99.90
61400;DHT22;47269;48.182;-1.946;2023-05-29T11:20:08;22.70;99.90
61400;DHT22;47269;48.182;-1.946;2023-05-29T11:23:06;22.50;99.90
61400;DHT22;47269;48.182;-1.946;2023-05-29T11:25:51;22.60;99.90
61400;DHT22;47269;48.182;-1.946;2023-05-29T11:28:18;22.50;99.90
61400;DHT22;47269;48.182;-1.946;2023-05-29T11:30:46;22.40;99.90
61400;DHT22;47269;48.182;-1.946;2023-05-29T11:33:23;22.20;99.90
61400;DHT22;47269;48.182;-1.946;2023-05-29T11:36:00;22.90;99.90
61400;DHT22;47269;48.182;-1.946;2023-05-29T11:38:27;22.80;99.90
61400;DHT22;47269;48.182;-1.946;2023-05-29T11:40:54;22.70;99.90
61400;DHT22;47269;48.182;-1.946;2023-05-29T11:43:21;22.20;99.90
61400;DHT22;47269;48.182;-1.946;2023-05-29T11:45:47;22.80;99.90
61400;DHT22;47269;48.182;-1.946;2023-05-29T11:48:12;22.60;99.90
61400;DHT22;47269;48.182;-1.946;2023-05-29T11:50:38;22.60;99.90
61400;DHT22;47269;48.182;-1.946;2023-05-29T11:53:06;22.70;99.90
61400;DHT22;47269;48.182;-1.946;2023-05-29T11:55:32;22.80;99.90
61400;DHT22;47269;48.182;-1.946;2023-05-29T11:57:59;22.70;99.90
61400;DHT22;47269;48.182;-1.946;2023-05-29T12:00:30;22.90;99.90
61400;DHT22;47269;48.182;-1.946;2023-05-29T12:02:58;22.60;99.90
61400;DHT22;47269;48.182;-1.946;2023-05-29T12:05:32;23.30;99.90
61400;DHT22;47269;48.182;-1.946;2023-05-29T12:07:58;23.00;99.90
61400;DHT22;47269;48.182;-1.946;2023-05-29T12:10:28;23.00;99.90
61400;DHT22;47269;48.182;-1.946;2023-05-29T12:12:55;23.10;99.90
61400;DHT22;47269;48.182;-1.946;2023-05-29T12:15:22;22.90;99.90
61400;DHT22;47269;48.182;-1.946;2023-05-29T12:17:49;23.00;99.90
61400;DHT22;47269;48.182;-1.946;2023-05-29T12:20:17;22.90;99.90
61400;DHT22;47269;48.182;-1.946;2023-05-29T12:22:44;23.30;99.90
61400;DHT22;47269;48.182;-1.946;2023-05-29T12:25:12;23.40;99.90
61400;DHT22;47269;48.182;-1.946;2023-05-29T12:27:43;23.30;99.90
61400;DHT22;47269;48.182;-1.946;2023-05-29T12:30:10;23.50;99.90
61400;DHT22;47269;48.182;-1.946;2023-05-29T12:32:37;23.50;99.90
61400;DHT22;47269;48.182;-1.946;2023-05-29T12:35:17;23.80;99.90
61400;DHT22;47269;48.182;-1.946;2023-05-29T12:37:44;23.80;99.90
61400;DHT22;47269;48.182;-1.946;2023-05-29T12:40:14;23.80;99.90
61400;DHT22;47269;48.182;-1.946;2023-05-29T12:42:41;23.80;99.90
61400;DHT22;47269;48.182;-1.946;2023-05-29T12:45:07;23.70;99.90
61400;DHT22;47269;48.182;-1.946;2023-05-29T12:47:34;23.40;99.90
61400;DHT22;47269;48.182;-1.946;2023-05-29T12:50:06;23.70;99.90
61400;DHT22;47269;48.182;-1.946;2023-05-29T12:52:40;23.40;99.90
61400;DHT22;47269;48.182;-1.946;2023-05-29T12:55:06;23.70;99.90
61400;DHT22;47269;48.182;-1.946;2023-05-29T12:57:33;23.70;99.90
61400;DHT22;47269;48.182;-1.946;2023-05-29T12:59:58;23.90;99.90
61400;DHT22;47269;48.182;-1.946;2023-05-29T13:03:09;23.80;99.90
61400;DHT22;47269;48.182;-1.946;2023-05-29T13:05:37;23.70;99.90
61400;DHT22;47269;48.182;-1.946;2023-05-29T13:08:03;23.70;99.90
61400;DHT22;47269;48.182;-1.946;2023-05-29T13:10:31;23.60;99.90
61400;DHT22;47269;48.182;-1.946;2023-05-29T13:13:03;23.70;99.90
61400;DHT22;47269;48.182;-1.946;2023-05-29T13:15:29;23.50;99.90
61400;DHT22;47269;48.182;-1.946;2023-05-29T13:17:55;23.50;99.90
61400;DHT22;47269;48.182;-1.946;2023-05-29T13:20:21;23.90;99.90
61400;DHT22;47269;48.182;-1.946;2023-05-29T13:22:50;23.40;99.90
61400;DHT22;47269;48.182;-1.946;2023-05-29T13:25:17;23.50;99.90
61400;DHT22;47269;48.182;-1.946;2023-05-29T13:27:47;23.60;99.90
61400;DHT22;47269;48.182;-1.946;2023-05-29T13:30:16;23.80;99.90
61400;DHT22;47269;48.182;-1.946;2023-05-29T13:32:42;24.30;99.90
61400;DHT22;47269;48.182;-1.946;2023-05-29T13:35:08;24.20;99.90
61400;DHT22;47269;48.182;-1.946;2023-05-29T13:37:35;24.10;99.90
61400;DHT22;47269;48.182;-1.946;2023-05-29T13:40:01;23.90;99.90
61400;DHT22;47269;48.182;-1.946;2023-05-29T13:42:27;24.30;99.90
61400;DHT22;47269;48.182;-1.946;2023-05-29T13:44:53;23.90;99.90
61400;DHT22;47269;48.182;-1.946;2023-05-29T13:47:19;23.80;99.90
61400;DHT22;47269;48.182;-1.946;2023-05-29T13:49:45;24.00;99.90
61400;DHT22;47269;48.182;-1.946;2023-05-29T13:52:11;24.00;99.90
61400;DHT22;47269;48.182;-1.946;2023-05-29T13:54:38;23.90;99.90
61400;DHT22;47269;48.182;-1.946;2023-05-29T13:57:05;23.90;99.90
61400;DHT22;47269;48.182;-1.946;2023-05-29T13:59:32;23.70;99.90
61400;DHT22;47269;48.182;-1.946;2023-05-29T14:01:58;23.80;99.90
61400;DHT22;47269;48.182;-1.946;2023-05-29T14:04:24;24.10;99.90
61400;DHT22;47269;48.182;-1.946;2023-05-29T14:06:51;23.80;99.90
61400;DHT22;47269;48.182;-1.946;2023-05-29T14:09:16;23.70;99.90
61400;DHT22;47269;48.182;-1.946;2023-05-29T14:11:44;23.50;99.90
61400;DHT22;47269;48.182;-1.946;2023-05-29T14:14:10;23.70;99.90
61400;DHT22;47269;48.182;-1.946;2023-05-29T14:16:36;23.90;99.90
61400;DHT22;47269;48.182;-1.946;2023-05-29T14:19:02;23.90;99.90
61400;DHT22;47269;48.182;-1.946;2023-05-29T14:21:27;24.10;99.90
61400;DHT22;47269;48.182;-1.946;2023-05-29T14:23:53;24.20;99.90
61400;DHT22;47269;48.182;-1.946;2023-05-29T14:26:19;23.80;99.90
61400;DHT22;47269;48.182;-1.946;2023-05-29T14:28:44;23.90;99.90
61400;DHT22;47269;48.182;-1.946;2023-05-29T14:31:10;23.90;99.90
61400;DHT22;47269;48.182;-1.946;2023-05-29T14:33:36;24.20;99.90
61400;DHT22;47269;48.182;-1.946;2023-05-29T14:36:02;24.00;99.90
61400;DHT22;47269;48.182;-1.946;2023-05-29T14:38:28;23.80;99.90
61400;DHT22;47269;48.182;-1.946;2023-05-29T14:40:54;23.80;99.90
61400;DHT22;47269;48.182;-1.946;2023-05-29T14:43:20;23.80;99.90
61400;DHT22;47269;48.182;-1.946;2023-05-29T14:45:46;23.90;99.90
61400;DHT22;47269;48.182;-1.946;2023-05-29T14:48:19;23.90;99.90
61400;DHT22;47269;48.182;-1.946;2023-05-29T14:50:45;23.90;99.90
61400;DHT22;47269;48.182;-1.946;2023-05-29T14:53:25;23.90;99.90
61400;DHT22;47269;48.182;-1.946;2023-05-29T14:55:56;23.90;99.90
61400;DHT22;47269;48.182;-1.946;2023-05-29T14:58:22;23.80;99.90
61400;DHT22;47269;48.182;-1.946;2023-05-29T15:00:48;23.60;99.90
61400;DHT22;47269;48.182;-1.946;2023-05-29T15:03:14;23.70;99.90
61400;DHT22;47269;48.182;-1.946;2023-05-29T15:05:43;23.60;99.90
61400;DHT22;47269;48.182;-1.946;2023-05-29T15:08:09;23.90;99.90
61400;DHT22;47269;48.182;-1.946;2023-05-29T15:10:35;24.20;99.90
61400;DHT22;47269;48.182;-1.946;2023-05-29T15:13:01;23.90;99.90
61400;DHT22;47269;48.182;-1.946;2023-05-29T15:15:29;23.90;99.90
61400;DHT22;47269;48.182;-1.946;2023-05-29T15:17:55;24.00;99.90
61400;DHT22;47269;48.182;-1.946;2023-05-29T15:20:22;23.70;99.90
61400;DHT22;47269;48.182;-1.946;2023-05-29T15:22:48;23.50;99.90
61400;DHT22;47269;48.182;-1.946;2023-05-29T15:25:15;23.60;99.90
61400;DHT22;47269;48.182;-1.946;2023-05-29T15:27:42;24.20;99.90
61400;DHT22;47269;48.182;-1.946;2023-05-29T15:30:12;24.00;99.90
61400;DHT22;47269;48.182;-1.946;2023-05-29T15:32:39;24.10;99.90
61400;DHT22;47269;48.182;-1.946;2023-05-29T15:35:13;23.90;99.90
61400;DHT22;47269;48.182;-1.946;2023-05-29T15:37:42;23.70;99.90
61400;DHT22;47269;48.182;-1.946;2023-05-29T15:40:08;23.90;99.90
61400;DHT22;47269;48.182;-1.946;2023-05-29T15:42:35;23.90;99.90
61400;DHT22;47269;48.182;-1.946;2023-05-29T15:45:02;23.50;99.90
61400;DHT22;47269;48.182;-1.946;2023-05-29T15:47:29;23.60;99.90
61400;DHT22;47269;48.182;-1.946;2023-05-29T15:49:55;23.70;99.90
61400;DHT22;47269;48.182;-1.946;2023-05-29T15:52:21;23.60;99.90
61400;DHT22;47269;48.182;-1.946;2023-05-29T15:54:47;23.80;99.90
61400;DHT22;47269;48.182;-1.946;2023-05-29T15:57:12;23.60;99.90
61400;DHT22;47269;48.182;-1.946;2023-05-29T15:59:38;23.50;99.90
61400;DHT22;47269;48.182;-1.946;2023-05-29T16:02:04;23.60;99.90
61400;DHT22;47269;48.182;-1.946;2023-05-29T16:04:30;23.60;99.90
61400;DHT22;47269;48.182;-1.946;2023-05-29T16:07:09;23.50;99.90
61400;DHT22;47269;48.182;-1.946;2023-05-29T16:09:35;23.70;99.90
61400;DHT22;47269;48.182;-1.946;2023-05-29T16:12:05;23.60;99.90
61400;DHT22;47269;48.182;-1.946;2023-05-29T16:14:33;23.30;99.90
61400;DHT22;47269;48.182;-1.946;2023-05-29T16:20:08;23.10;99.90
61400;DHT22;47269;48.182;-1.946;2023-05-29T16:22:34;23.40;99.90
61400;DHT22;47269;48.182;-1.946;2023-05-29T16:25:01;23.10;99.90
61400;DHT22;47269;48.182;-1.946;2023-05-29T16:27:30;23.00;99.90
61400;DHT22;47269;48.182;-1.946;2023-05-29T16:29:56;22.90;99.90
61400;DHT22;47269;48.182;-1.946;2023-05-29T16:32:22;22.80;99.90
61400;DHT22;47269;48.182;-1.946;2023-05-29T16:34:48;22.90;99.90
61400;DHT22;47269;48.182;-1.946;2023-05-29T16:37:13;23.00;99.90
61400;DHT22;47269;48.182;-1.946;2023-05-29T16:39:39;23.00;99.90
61400;DHT22;47269;48.182;-1.946;2023-05-29T16:42:06;22.70;99.90
61400;DHT22;47269;48.182;-1.946;2023-05-29T16:44:34;22.80;99.90
61400;DHT22;47269;48.182;-1.946;2023-05-29T16:47:00;22.90;99.90
61400;DHT22;47269;48.182;-1.946;2023-05-29T16:49:26;22.50;99.90
61400;DHT22;47269;48.182;-1.946;2023-05-29T16:51:52;22.60;99.90
61400;DHT22;47269;48.182;-1.946;2023-05-29T16:54:18;22.30;99.90
61400;DHT22;47269;48.182;-1.946;2023-05-29T16:56:44;22.20;99.90
61400;DHT22;47269;48.182;-1.946;2023-05-29T16:59:10;22.10;99.90
61400;DHT22;47269;48.182;-1.946;2023-05-29T17:01:39;22.30;99.90
61400;DHT22;47269;48.182;-1.946;2023-05-29T17:04:06;22.30;99.90
61400;DHT22;47269;48.182;-1.946;2023-05-29T17:06:34;22.00;99.90
61400;DHT22;47269;48.182;-1.946;2023-05-29T17:09:00;21.70;99.90
61400;DHT22;47269;48.182;-1.946;2023-05-29T17:11:27;21.70;99.90
61400;DHT22;47269;48.182;-1.946;2023-05-29T17:13:53;21.80;99.90
61400;DHT22;47269;48.182;-1.946;2023-05-29T17:16:19;21.80;99.90
61400;DHT22;47269;48.182;-1.946;2023-05-29T17:18:44;21.80;99.90
61400;DHT22;47269;48.182;-1.946;2023-05-29T17:21:10;21.60;99.90
61400;DHT22;47269;48.182;-1.946;2023-05-29T17:23:36;21.70;99.90
61400;DHT22;47269;48.182;-1.946;2023-05-29T17:26:02;21.60;99.90
61400;DHT22;47269;48.182;-1.946;2023-05-29T17:28:28;21.50;99.90
61400;DHT22;47269;48.182;-1.946;2023-05-29T17:30:53;21.50;99.90
61400;DHT22;47269;48.182;-1.946;2023-05-29T17:33:19;21.50;99.90
61400;DHT22;47269;48.182;-1.946;2023-05-29T17:35:45;21.40;99.90
61400;DHT22;47269;48.182;-1.946;2023-05-29T17:38:11;21.40;99.90
61400;DHT22;47269;48.182;-1.946;2023-05-29T17:40:37;21.30;99.90
61400;DHT22;47269;48.182;-1.946;2023-05-29T17:43:02;21.20;99.90
61400;DHT22;47269;48.182;-1.946;2023-05-29T17:45:29;21.10;99.90
61400;DHT22;47269;48.182;-1.946;2023-05-29T17:47:55;21.20;99.90
61400;DHT22;47269;48.182;-1.946;2023-05-29T17:50:21;21.20;99.90
61400;DHT22;47269;48.182;-1.946;2023-05-29T17:52:46;21.00;99.90
61400;DHT22;47269;48.182;-1.946;2023-05-29T17:55:12;20.90;99.90
61400;DHT22;47269;48.182;-1.946;2023-05-29T17:57:38;20.90;99.90
61400;DHT22;47269;48.182;-1.946;2023-05-29T18:00:05;20.80;99.90
61400;DHT22;47269;48.182;-1.946;2023-05-29T18:02:31;20.80;99.90
61400;DHT22;47269;48.182;-1.946;2023-05-29T18:04:56;20.70;99.90
61400;DHT22;47269;48.182;-1.946;2023-05-29T18:07:22;20.60;99.90
61400;DHT22;47269;48.182;-1.946;2023-05-29T18:09:48;20.50;99.90
61400;DHT22;47269;48.182;-1.946;2023-05-29T18:12:14;20.50;99.90
61400;DHT22;47269;48.182;-1.946;2023-05-29T18:14:40;20.50;99.90
61400;DHT22;47269;48.182;-1.946;2023-05-29T18:17:06;20.40;99.90
61400;DHT22;47269;48.182;-1.946;2023-05-29T18:19:33;20.30;99.90
61400;DHT22;47269;48.182;-1.946;2023-05-29T18:21:59;20.30;99.90
61400;DHT22;47269;48.182;-1.946;2023-05-29T18:24:25;20.20;99.90
61400;DHT22;47269;48.182;-1.946;2023-05-29T18:26:51;20.10;99.90
61400;DHT22;47269;48.182;-1.946;2023-05-29T18:29:17;20.10;99.90
61400;DHT22;47269;48.182;-1.946;2023-05-29T18:31:47;20.00;99.90
61400;DHT22;47269;48.182;-1.946;2023-05-29T18:34:29;20.00;99.90
61400;DHT22;47269;48.182;-1.946;2023-05-29T18:36:55;19.90;99.90
61400;DHT22;47269;48.182;-1.946;2023-05-29T18:39:21;19.90;99.90
61400;DHT22;47269;48.182;-1.946;2023-05-29T18:41:47;19.80;99.90
61400;DHT22;47269;48.182;-1.946;2023-05-29T18:44:13;19.70;99.90
61400;DHT22;47269;48.182;-1.946;2023-05-29T18:46:38;19.50;99.90
61400;DHT22;47269;48.182;-1.946;2023-05-29T18:49:04;19.50;99.90
61400;DHT22;47269;48.182;-1.946;2023-05-29T18:51:30;19.40;99.90
61400;DHT22;47269;48.182;-1.946;2023-05-29T18:53:56;19.30;99.90
61400;DHT22;47269;48.182;-1.946;2023-05-29T18:56:21;19.30;99.90
61400;DHT22;47269;48.182;-1.946;2023-05-29T18:58:49;19.20;99.90
61400;DHT22;47269;48.182;-1.946;2023-05-29T19:01:15;19.10;99.90
61400;DHT22;47269;48.182;-1.946;2023-05-29T19:03:44;18.90;99.90
61400;DHT22;47269;48.182;-1.946;2023-05-29T19:06:10;18.90;99.90
61400;DHT22;47269;48.182;-1.946;2023-05-29T19:08:37;18.80;99.90
61400;DHT22;47269;48.182;-1.946;2023-05-29T19:11:02;18.80;99.90
61400;DHT22;47269;48.182;-1.946;2023-05-29T19:13:28;18.70;99.90
61400;DHT22;47269;48.182;-1.946;2023-05-29T19:15:54;18.70;99.90
61400;DHT22;47269;48.182;-1.946;2023-05-29T19:18:20;18.70;99.90
61400;DHT22;47269;48.182;-1.946;2023-05-29T19:20:46;18.60;99.90
61400;DHT22;47269;48.182;-1.946;2023-05-29T19:23:11;18.40;99.90
61400;DHT22;47269;48.182;-1.946;2023-05-29T19:25:37;18.40;99.90
61400;DHT22;47269;48.182;-1.946;2023-05-29T19:28:03;18.30;99.90
61400;DHT22;47269;48.182;-1.946;2023-05-29T19:30:29;18.20;99.90
61400;DHT22;47269;48.182;-1.946;2023-05-29T19:32:55;18.10;99.90
61400;DHT22;47269;48.182;-1.946;2023-05-29T19:35:21;18.00;99.90
61400;DHT22;47269;48.182;-1.946;2023-05-29T19:37:46;18.00;99.90
61400;DHT22;47269;48.182;-1.946;2023-05-29T19:40:13;17.80;99.90
61400;DHT22;47269;48.182;-1.946;2023-05-29T19:42:39;17.70;99.90
61400;DHT22;47269;48.182;-1.946;2023-05-29T19:45:05;17.60;99.90
61400;DHT22;47269;48.182;-1.946;2023-05-29T19:47:31;17.50;99.90
61400;DHT22;47269;48.182;-1.946;2023-05-29T19:49:57;17.40;99.90
61400;DHT22;47269;48.182;-1.946;2023-05-29T19:52:28;17.30;99.90
61400;DHT22;47269;48.182;-1.946;2023-05-29T19:54:54;17.10;99.90
61400;DHT22;47269;48.182;-1.946;2023-05-29T19:57:20;17.10;99.90
61400;DHT22;47269;48.182;-1.946;2023-05-29T19:59:45;17.00;99.90
61400;DHT22;47269;48.182;-1.946;2023-05-29T20:02:13;16.90;99.90
61400;DHT22;47269;48.182;-1.946;2023-05-29T20:04:39;16.90;99.90
61400;DHT22;47269;48.182;-1.946;2023-05-29T20:07:09;16.80;99.90
61400;DHT22;47269;48.182;-1.946;2023-05-29T20:09:36;16.70;99.90
61400;DHT22;47269;48.182;-1.946;2023-05-29T20:12:01;16.60;99.90
61400;DHT22;47269;48.182;-1.946;2023-05-29T20:14:27;16.60;99.90
61400;DHT22;47269;48.182;-1.946;2023-05-29T20:16:53;16.60;99.90
61400;DHT22;47269;48.182;-1.946;2023-05-29T20:19:19;16.50;99.90
61400;DHT22;47269;48.182;-1.946;2023-05-29T20:21:45;16.50;99.90
61400;DHT22;47269;48.182;-1.946;2023-05-29T20:24:11;16.40;99.90
61400;DHT22;47269;48.182;-1.946;2023-05-29T20:26:40;16.30;99.90
61400;DHT22;47269;48.182;-1.946;2023-05-29T20:29:06;16.20;99.90
61400;DHT22;47269;48.182;-1.946;2023-05-29T20:31:32;16.20;99.90
61400;DHT22;47269;48.182;-1.946;2023-05-29T20:33:58;16.20;99.90
61400;DHT22;47269;48.182;-1.946;2023-05-29T20:36:24;16.10;99.90
61400;DHT22;47269;48.182;-1.946;2023-05-29T20:38:51;16.10;99.90
61400;DHT22;47269;48.182;-1.946;2023-05-29T20:41:19;16.00;99.90
61400;DHT22;47269;48.182;-1.946;2023-05-29T20:43:48;16.00;99.90
61400;DHT22;47269;48.182;-1.946;2023-05-29T20:46:14;15.80;99.90
61400;DHT22;47269;48.182;-1.946;2023-05-29T20:48:40;15.90;99.90
61400;DHT22;47269;48.182;-1.946;2023-05-29T20:51:06;15.80;99.90
61400;DHT22;47269;48.182;-1.946;2023-05-29T20:53:32;15.80;99.90
61400;DHT22;47269;48.182;-1.946;2023-05-29T20:55:58;15.70;99.90
61400;DHT22;47269;48.182;-1.946;2023-05-29T20:58:24;15.70;99.90
61400;DHT22;47269;48.182;-1.946;2023-05-29T21:00:50;15.50;99.90
61400;DHT22;47269;48.182;-1.946;2023-05-29T21:03:16;15.50;99.90
61400;DHT22;47269;48.182;-1.946;2023-05-29T21:05:43;15.50;99.90
61400;DHT22;47269;48.182;-1.946;2023-05-29T21:08:10;15.40;99.90
61400;DHT22;47269;48.182;-1.946;2023-05-29T21:10:37;15.40;99.90
61400;DHT22;47269;48.182;-1.946;2023-05-29T21:13:03;15.30;99.90
61400;DHT22;47269;48.182;-1.946;2023-05-29T21:15:28;15.20;99.90
61400;DHT22;47269;48.182;-1.946;2023-05-29T21:17:54;15.10;99.90
61400;DHT22;47269;48.182;-1.946;2023-05-29T21:20:20;15.20;99.90
61400;DHT22;47269;48.182;-1.946;2023-05-29T21:22:46;15.10;99.90
61400;DHT22;47269;48.182;-1.946;2023-05-29T21:25:11;15.00;99.90
61400;DHT22;47269;48.182;-1.946;2023-05-29T21:27:37;15.00;99.90
61400;DHT22;47269;48.182;-1.946;2023-05-29T21:30:03;14.90;99.90
61400;DHT22;47269;48.182;-1.946;2023-05-29T21:32:29;14.90;99.90
61400;DHT22;47269;48.182;-1.946;2023-05-29T21:34:55;14.90;99.90
61400;DHT22;47269;48.182;-1.946;2023-05-29T21:37:22;14.90;99.90
61400;DHT22;47269;48.182;-1.946;2023-05-29T21:39:50;14.70;99.90
61400;DHT22;47269;48.182;-1.946;2023-05-29T21:42:16;14.70;99.90
61400;DHT22;47269;48.182;-1.946;2023-05-29T21:44:43;14.70;99.90
61400;DHT22;47269;48.182;-1.946;2023-05-29T21:47:09;14.60;99.90
61400;DHT22;47269;48.182;-1.946;2023-05-29T21:49:35;14.60;99.90
61400;DHT22;47269;48.182;-1.946;2023-05-29T21:52:02;14.50;99.90
61400;DHT22;47269;48.182;-1.946;2023-05-29T21:54:27;14.60;99.90
61400;DHT22;47269;48.182;-1.946;2023-05-29T21:56:53;14.50;99.90
61400;DHT22;47269;48.182;-1.946;2023-05-29T21:59:19;14.50;99.90
61400;DHT22;47269;48.182;-1.946;2023-05-29T22:01:45;14.50;99.90
61400;DHT22;47269;48.182;-1.946;2023-05-29T22:04:11;14.40;99.90
61400;DHT22;47269;48.182;-1.946;2023-05-29T22:06:36;14.30;99.90
61400;DHT22;47269;48.182;-1.946;2023-05-29T22:09:03;14.30;99.90
61400;DHT22;47269;48.182;-1.946;2023-05-29T22:11:29;14.20;99.90
61400;DHT22;47269;48.182;-1.946;2023-05-29T22:14:08;14.20;99.90